createdAt,value
2019-06-08T00:05:39.309Z,15.53
2019-06-08T00:13:56.768Z,15.90
2019-06-08T00:22:15.649Z,15.80
2019-06-08T00:30:33.230Z,17.20
2019-06-08T00:38:50.842Z,18.27
2019-06-08T00:47:08.645Z,21.77
2019-06-08T00:55:26.127Z,19.03
2019-06-08T01:03:43.709Z,19.00
2019-06-08T01:12:01.241Z,22.83
2019-06-08T01:20:19.479Z,19.87
2019-06-08T01:28:37.072Z,23.33
2019-06-08T01:36:54.584Z,20.50
2019-06-08T01:45:15.057Z,22.03
2019-06-08T01:53:33.030Z,20.15
2019-06-08T02:01:50.508Z,14.00
2019-06-08T02:10:08.339Z,4.27
2019-06-08T02:18:36.369Z,3.20
2019-06-08T02:26:45.367Z,2.80
2019-06-08T02:35:02.938Z,2.37
2019-06-08T02:43:20.796Z,2.80
2019-06-08T02:51:38.682Z,2.57
2019-06-08T02:59:57.763Z,2.10
2019-06-08T03:08:15.237Z,2.20
2019-06-08T03:16:33.364Z,2.10
2019-06-08T03:24:50.990Z,1.97
2019-06-08T03:33:08.447Z,1.87
2019-06-08T03:41:25.928Z,1.97
2019-06-08T03:49:56.144Z,2.47
2019-06-08T03:58:02.542Z,3.40
2019-06-08T04:06:20.051Z,3.30
2019-06-08T04:14:37.876Z,2.75
2019-06-08T04:22:55.544Z,2.33
2019-06-08T04:31:13.048Z,2.23
2019-06-08T04:39:30.577Z,2.40
2019-06-08T04:47:50.042Z,2.53
2019-06-08T04:56:07.300Z,2.40
2019-06-08T05:04:24.845Z,1.90
2019-06-08T05:12:43.409Z,1.60
2019-06-08T05:21:01.294Z,1.70
2019-06-08T05:29:19.074Z,1.60
2019-06-08T05:37:36.645Z,1.90
2019-06-08T05:45:57.414Z,1.80
2019-06-08T05:54:14.884Z,1.93
2019-06-08T06:02:32.370Z,1.60
2019-06-08T06:10:51.291Z,1.57
2019-06-08T06:19:09.121Z,2.10
2019-06-08T06:27:26.711Z,2.10
2019-06-08T06:35:45.676Z,2.97
2019-06-08T06:44:03.420Z,2.20
2019-06-08T06:52:20.988Z,1.63
2019-06-08T07:00:38.454Z,1.37
2019-06-08T07:08:55.976Z,1.60
2019-06-08T07:17:13.487Z,1.80
2019-06-08T07:25:31.039Z,1.60
2019-06-08T07:33:50.086Z,1.65
2019-06-08T07:42:07.888Z,1.50
2019-06-08T07:50:25.397Z,2.27
2019-06-08T07:58:42.949Z,2.00
2019-06-08T08:07:00.529Z,1.97
2019-06-08T08:15:18.121Z,2.07
2019-06-08T08:23:35.532Z,2.20
2019-06-08T08:31:53.430Z,2.03
2019-06-08T08:40:13.002Z,4.33
2019-06-08T08:48:31.693Z,1.80
2019-06-08T08:56:52.170Z,1.63
2019-06-08T09:05:09.683Z,2.60
2019-06-08T09:13:28.233Z,3.87
2019-06-08T09:21:48.203Z,1.70
2019-06-08T09:30:08.138Z,1.57
2019-06-08T09:38:25.153Z,2.20
2019-06-08T09:46:42.681Z,2.07
2019-06-08T09:55:03.922Z,2.70
2019-06-08T10:03:19.702Z,2.07
2019-06-08T10:11:37.989Z,2.60
2019-06-08T10:19:57.982Z,2.03
2019-06-08T10:28:18.542Z,2.67
2019-06-08T10:36:34.116Z,5.53
2019-06-08T10:44:51.544Z,3.30
2019-06-08T10:53:11.916Z,2.57
2019-06-08T11:01:28.347Z,2.53
2019-06-08T11:09:48.211Z,1.77
2019-06-08T11:18:07.727Z,2.13
2019-06-08T11:26:24.903Z,2.30
2019-06-08T11:34:42.620Z,2.90
2019-06-08T11:43:00.599Z,2.20
2019-06-08T11:51:18.277Z,2.63
2019-06-08T11:59:37.494Z,2.83
2019-06-08T12:07:57.724Z,2.23
2019-06-08T12:16:15.857Z,3.17
2019-06-08T12:24:42.166Z,2.80
2019-06-08T12:32:52.881Z,3.90
2019-06-08T12:41:12.268Z,2.20
2019-06-08T12:49:29.557Z,2.70
2019-06-08T12:57:48.451Z,2.97
2019-06-08T13:06:07.900Z,3.03
2019-06-08T13:14:25.333Z,2.40
2019-06-08T13:22:42.813Z,2.70
2019-06-08T13:31:00.219Z,4.60
2019-06-08T13:39:19.592Z,2.90
2019-06-08T13:47:40.974Z,2.60
2019-06-08T13:55:56.906Z,5.23
2019-06-08T14:04:15.038Z,2.77
2019-06-08T14:12:32.640Z,3.30
2019-06-08T14:20:50.101Z,2.70
2019-06-08T14:29:08.290Z,2.73
2019-06-08T14:37:29.119Z,3.12
2019-06-08T14:45:45.203Z,2.30
2019-06-08T14:54:02.702Z,2.43
2019-06-08T15:02:21.228Z,3.10
2019-06-08T15:10:38.845Z,2.00
2019-06-08T15:19:00.043Z,2.20
2019-06-08T15:27:15.513Z,2.60
2019-06-08T15:35:32.951Z,3.20
2019-06-08T15:43:50.363Z,2.10
2019-06-08T15:52:07.796Z,3.07
2019-06-08T16:00:27.703Z,3.20
2019-06-08T16:08:44.507Z,2.27
2019-06-08T16:17:01.967Z,3.87
2019-06-08T16:25:19.398Z,2.10
2019-06-08T16:33:36.829Z,3.97
2019-06-08T16:41:54.269Z,2.70
2019-06-08T16:50:24.029Z,2.77
2019-06-08T16:58:32.153Z,2.70
2019-06-08T17:06:49.651Z,3.00
2019-06-08T17:15:07.279Z,4.43
2019-06-08T17:23:25.124Z,2.70
2019-06-08T17:31:42.612Z,2.80
2019-06-08T17:40:00.019Z,5.70
2019-06-08T17:48:17.441Z,3.70
2019-06-08T17:56:35.376Z,2.50
2019-06-08T18:04:53.058Z,3.07
2019-06-08T18:13:10.491Z,5.03
2019-06-08T18:21:28.331Z,3.50
2019-06-08T18:29:48.396Z,2.95
2019-06-08T18:38:07.568Z,8.67
2019-06-08T18:46:27.074Z,2.70
2019-06-08T18:54:44.267Z,2.23
2019-06-08T19:03:01.843Z,2.97
2019-06-08T19:20:18.652Z,5.67
2019-06-08T19:28:40.177Z,22.93
2019-06-08T19:36:57.325Z,7.37
2019-06-08T19:45:14.990Z,4.07
2019-06-08T19:53:32.594Z,8.03
2019-06-08T20:01:55.008Z,16.50
2019-06-08T20:10:41.068Z,16.87
2019-06-08T20:18:58.804Z,11.43
2019-06-08T20:27:17.210Z,13.30
2019-06-08T20:35:37.391Z,11.57
2019-06-08T20:43:57.983Z,26.77
2019-06-08T20:52:17.623Z,13.33
2019-06-08T21:00:37.654Z,16.40
2019-06-08T21:08:54.837Z,22.03
2019-06-08T21:17:13.456Z,11.70
2019-06-08T21:25:30.991Z,12.15
2019-06-08T21:33:51.002Z,17.03
2019-06-08T21:42:08.185Z,7.13
2019-06-08T21:50:27.545Z,22.67
2019-06-08T21:58:47.272Z,7.60
2019-06-08T22:07:06.960Z,12.80
2019-06-08T22:15:23.974Z,18.60
2019-06-08T22:23:41.489Z,8.43
2019-06-08T22:31:59.766Z,8.80
2019-06-08T22:40:17.671Z,16.23
2019-06-08T22:48:35.383Z,42.20
2019-06-08T22:56:54.215Z,8.08
2019-06-08T23:05:12.404Z,9.13
2019-06-08T23:13:29.957Z,14.73
2019-06-08T23:30:34.902Z,9.47
2019-06-08T23:38:52.380Z,5.57
2019-06-08T23:47:09.897Z,3.73
2019-06-08T23:55:27.922Z,5.27
